Terminal Aerodrome Forecast
Issued by NWS

Home | Current Version | Previous Version | Graphics & Text | Print | Product List | Glossary On
Versions: 1 2 3 4 5 6 7 8 9 10 11 12 13 14 15 16 17
000
FTUS43 KICT 292320
TAFCNU
TAF
KCNU 292320Z 3000/3024 04014KT P6SM -SHRA VCTS SCT012 OVC025CB
      TEMPO 3000/3003 2SM +TSRA BKN008 OVC015CB
     FM300300 11011KT 4SM BR VCTS OVC009CB
     FM301000 20007KT 3SM BR OVC007
     FM301600 24013KT P6SM SCT025
     FM302100 23014KT P6SM SCT110=

USA.gov is the U.S. government's official web portal to all federal, state and local government web resources and services.